createdAt,value
2022-10-08T00:00:59.247Z,9.55
2022-10-08T00:03:28.995Z,9.73
2022-10-08T00:06:00.913Z,11.15
2022-10-08T00:08:29.196Z,10.70
2022-10-08T00:10:58.343Z,9.63
2022-10-08T00:13:26.034Z,7.70
2022-10-08T00:15:52.945Z,11.45
2022-10-08T00:18:20.485Z,10.45
2022-10-08T00:20:47.948Z,10.35
2022-10-08T00:23:14.510Z,9.02
2022-10-08T00:25:42.678Z,11.18
2022-10-08T00:28:10.870Z,8.50
2022-10-08T00:30:39.152Z,12.55
2022-10-08T00:33:06.397Z,12.93
2022-10-08T00:35:37.763Z,8.90
2022-10-08T00:38:04.763Z,15.85
2022-10-08T00:40:31.187Z,8.45
2022-10-08T00:43:00.478Z,6.88
2022-10-08T00:45:26.977Z,10.70
2022-10-08T00:47:56.213Z,13.30
2022-10-08T00:50:30.564Z,13.20
2022-10-08T00:53:01.291Z,11.43
2022-10-08T00:55:29.082Z,10.88
2022-10-08T00:58:05.034Z,8.20
2022-10-08T01:00:33.180Z,9.98
2022-10-08T01:03:00.686Z,11.90
2022-10-08T01:05:56.121Z,9.15
2022-10-08T01:08:36.168Z,9.23
2022-10-08T01:11:14.067Z,8.05
2022-10-08T01:13:53.027Z,12.32
2022-10-08T01:16:34.152Z,6.78
2022-10-08T01:22:12.126Z,6.82
2022-10-08T01:25:13.302Z,9.18
2022-10-08T01:27:45.620Z,11.77
2022-10-08T01:30:17.906Z,10.27
2022-10-08T01:32:53.510Z,7.03
2022-10-08T01:35:30.524Z,8.70
2022-10-08T01:38:01.061Z,5.53
2022-10-08T01:40:33.379Z,7.40
2022-10-08T01:43:02.090Z,8.00
2022-10-08T01:45:34.203Z,7.88
2022-10-08T01:48:06.354Z,6.97
2022-10-08T01:50:44.312Z,7.30
2022-10-08T01:53:15.402Z,6.82
2022-10-08T01:58:25.924Z,7.50
2022-10-08T02:00:55.219Z,6.65
2022-10-08T02:03:21.813Z,7.22
2022-10-08T02:05:51.942Z,7.30
2022-10-08T02:08:18.588Z,9.40
2022-10-08T02:10:44.977Z,6.53
2022-10-08T02:13:12.119Z,7.53
2022-10-08T02:15:47.758Z,9.68
2022-10-08T02:18:20.540Z,6.13
2022-10-08T02:20:58.923Z,7.95
2022-10-08T02:23:32.453Z,5.15
2022-10-08T02:26:01.071Z,9.05
2022-10-08T02:28:39.948Z,7.15
2022-10-08T02:31:29.611Z,5.35
2022-10-08T02:34:03.650Z,11.73
2022-10-08T02:36:40.412Z,5.82
2022-10-08T02:39:08.280Z,5.28
2022-10-08T02:41:40.302Z,8.95
2022-10-08T02:44:19.639Z,9.60
2022-10-08T02:46:50.316Z,5.97
2022-10-08T02:49:24.125Z,7.32
2022-10-08T02:51:53.295Z,6.28
2022-10-08T02:54:21.927Z,11.98
2022-10-08T02:57:21.751Z,10.85
2022-10-08T02:59:48.596Z,5.18
2022-10-08T03:02:27.700Z,6.40
2022-10-08T03:05:01.548Z,10.45
2022-10-08T03:07:32.469Z,6.88
2022-10-08T03:10:03.108Z,6.00
2022-10-08T03:12:30.287Z,7.68
2022-10-08T03:14:56.828Z,6.20
2022-10-08T03:17:30.424Z,6.80
2022-10-08T03:19:57.822Z,8.20
2022-10-08T03:22:24.848Z,6.82
2022-10-08T03:24:56.016Z,7.03
2022-10-08T03:27:23.176Z,7.88
2022-10-08T03:29:49.591Z,7.45
2022-10-08T03:32:16.191Z,5.90
2022-10-08T03:34:42.589Z,8.23
2022-10-08T03:37:09.127Z,6.32
2022-10-08T03:39:35.582Z,5.70
2022-10-08T03:42:01.963Z,4.90
2022-10-08T03:44:28.394Z,7.30
2022-10-08T03:46:54.779Z,8.00
2022-10-08T03:49:21.191Z,5.70
2022-10-08T03:51:47.599Z,5.50
2022-10-08T03:54:13.979Z,6.63
2022-10-08T03:56:40.387Z,8.48
2022-10-08T03:59:06.782Z,5.50
2022-10-08T04:01:33.234Z,6.30
2022-10-08T04:03:59.799Z,5.85
2022-10-08T04:06:26.203Z,7.97
2022-10-08T04:08:53.507Z,7.30
2022-10-08T04:11:20.035Z,4.90
2022-10-08T04:13:46.728Z,8.88
2022-10-08T04:16:18.502Z,7.72
2022-10-08T04:18:46.612Z,8.77
2022-10-08T04:21:15.211Z,7.13
2022-10-08T04:23:42.754Z,12.82
2022-10-08T04:26:11.298Z,13.63
2022-10-08T04:28:39.423Z,11.25
2022-10-08T04:31:08.280Z,6.88
2022-10-08T04:33:35.714Z,10.77
2022-10-08T04:36:10.463Z,10.30
2022-10-08T04:38:36.923Z,15.63
2022-10-08T04:41:10.210Z,8.70
2022-10-08T04:43:38.273Z,8.30
2022-10-08T04:46:05.567Z,18.73
2022-10-08T04:48:32.102Z,6.60
2022-10-08T04:51:06.844Z,9.50
2022-10-08T04:53:36.138Z,10.25
2022-10-08T04:56:13.452Z,10.68
2022-10-08T04:58:40.614Z,8.40
2022-10-08T05:01:09.504Z,7.82
2022-10-08T05:03:37.787Z,13.63
2022-10-08T05:06:04.679Z,9.57
2022-10-08T05:08:31.504Z,8.90
2022-10-08T05:10:57.887Z,8.80
2022-10-08T05:13:24.378Z,7.07
2022-10-08T05:15:50.867Z,8.15
2022-10-08T05:18:17.293Z,9.02
2022-10-08T05:20:43.755Z,11.18
2022-10-08T05:23:10.322Z,7.70
2022-10-08T05:25:36.702Z,9.02
2022-10-08T05:28:04.514Z,6.82
2022-10-08T05:30:30.962Z,8.07
2022-10-08T05:32:57.347Z,8.20
2022-10-08T05:35:23.743Z,10.43
2022-10-08T05:37:50.134Z,13.05
2022-10-08T05:40:16.528Z,10.68
2022-10-08T05:42:42.944Z,10.57
2022-10-08T05:45:09.809Z,7.05
2022-10-08T05:47:36.187Z,10.93
2022-10-08T05:50:02.610Z,8.20
2022-10-08T05:52:29.032Z,10.30
2022-10-08T05:54:55.423Z,11.57
2022-10-08T05:57:21.807Z,9.80
2022-10-08T05:59:48.251Z,10.50
2022-10-08T06:02:14.639Z,10.48
2022-10-08T06:04:41.117Z,10.90
2022-10-08T06:07:07.575Z,9.38
2022-10-08T06:09:33.973Z,7.10
2022-10-08T06:12:00.378Z,4.75
2022-10-08T06:14:27.692Z,6.13
2022-10-08T06:16:54.122Z,7.05
2022-10-08T06:19:21.505Z,4.88
2022-10-08T06:21:48.380Z,7.55
2022-10-08T06:24:14.754Z,12.57
2022-10-08T06:26:43.141Z,7.00
2022-10-08T06:29:15.179Z,9.80
2022-10-08T06:31:42.459Z,11.18
2022-10-08T06:34:09.092Z,9.77
2022-10-08T06:36:37.568Z,12.90
2022-10-08T06:39:10.887Z,9.95
2022-10-08T06:41:37.382Z,15.50
2022-10-08T06:44:05.791Z,16.95
2022-10-08T06:46:33.122Z,14.60
2022-10-08T06:49:01.147Z,16.60
2022-10-08T06:51:28.170Z,17.80
2022-10-08T06:53:58.658Z,15.85
2022-10-08T06:56:26.929Z,15.07
2022-10-08T06:58:53.672Z,17.30
2022-10-08T07:01:30.335Z,14.43
2022-10-08T07:04:00.488Z,20.80
2022-10-08T07:06:27.249Z,8.75
2022-10-08T07:08:55.913Z,14.57
2022-10-08T07:11:23.948Z,12.38
2022-10-08T07:13:50.362Z,12.43
2022-10-08T07:16:21.856Z,17.15
2022-10-08T07:18:51.068Z,13.45
2022-10-08T07:21:19.374Z,15.43
2022-10-08T07:23:45.988Z,11.93
2022-10-08T07:26:20.855Z,12.15
2022-10-08T07:28:57.809Z,13.45
2022-10-08T07:31:29.938Z,18.48
2022-10-08T07:34:01.182Z,16.70
2022-10-08T07:36:29.223Z,12.25
2022-10-08T07:39:04.855Z,11.90
2022-10-08T07:41:31.821Z,14.32
2022-10-08T07:44:00.702Z,11.05
2022-10-08T07:46:29.078Z,17.50
2022-10-08T07:48:56.891Z,13.55
2022-10-08T07:51:23.318Z,15.23
2022-10-08T07:53:49.699Z,13.63
2022-10-08T07:56:18.364Z,16.60
2022-10-08T07:58:45.015Z,10.45
2022-10-08T08:01:17.411Z,18.88
2022-10-08T08:03:44.241Z,10.93
2022-10-08T08:06:13.255Z,15.30
2022-10-08T08:08:41.281Z,11.88
2022-10-08T08:11:10.221Z,12.60
2022-10-08T08:13:38.413Z,13.60
2022-10-08T08:16:07.319Z,13.05
2022-10-08T08:18:36.464Z,14.05
2022-10-08T08:21:09.672Z,11.63
2022-10-08T08:23:39.236Z,19.17
2022-10-08T08:26:15.460Z,12.57
2022-10-08T08:28:42.265Z,14.55
2022-10-08T08:31:23.334Z,19.50
2022-10-08T08:33:52.199Z,12.07
2022-10-08T08:36:20.544Z,15.60
2022-10-08T08:38:47.546Z,20.38
2022-10-08T08:41:41.788Z,16.92
2022-10-08T08:44:22.167Z,12.18
2022-10-08T08:47:07.240Z,13.55
2022-10-08T08:49:37.096Z,19.02
2022-10-08T08:52:04.967Z,11.93
2022-10-08T08:54:31.390Z,14.27
2022-10-08T08:57:11.231Z,16.23
2022-10-08T08:59:44.432Z,11.50
2022-10-08T09:02:22.564Z,14.80
2022-10-08T09:04:55.992Z,15.63
2022-10-08T09:07:26.279Z,11.73
2022-10-08T09:09:55.375Z,14.27
2022-10-08T09:12:30.767Z,15.07
2022-10-08T09:15:00.828Z,14.10
2022-10-08T09:17:33.160Z,15.87
2022-10-08T09:20:00.629Z,17.25
2022-10-08T09:22:30.768Z,16.63
2022-10-08T09:25:00.436Z,12.30
2022-10-08T09:27:51.386Z,14.73
2022-10-08T09:30:40.620Z,10.75
2022-10-08T09:33:13.395Z,14.00
2022-10-08T09:35:48.831Z,16.58
2022-10-08T09:38:41.627Z,11.57
2022-10-08T09:41:19.283Z,18.58
2022-10-08T09:44:09.748Z,13.63
2022-10-08T09:46:36.165Z,17.83
2022-10-08T09:49:27.109Z,17.70
2022-10-08T09:51:55.135Z,12.23
2022-10-08T09:54:26.024Z,14.95
2022-10-08T09:56:55.755Z,24.10
2022-10-08T09:59:25.531Z,18.35
2022-10-08T10:01:53.180Z,17.23
2022-10-08T10:04:33.539Z,11.40
2022-10-08T10:07:00.137Z,13.73
2022-10-08T10:09:38.886Z,14.88
2022-10-08T10:12:20.230Z,12.60
2022-10-08T10:14:51.390Z,18.45
2022-10-08T10:17:30.334Z,14.80
2022-10-08T10:20:01.840Z,13.32
2022-10-08T10:22:38.248Z,15.05
2022-10-08T10:25:16.383Z,17.23
2022-10-08T10:27:54.816Z,14.55
2022-10-08T10:30:23.622Z,13.40
2022-10-08T10:32:57.411Z,12.13
2022-10-08T10:35:27.136Z,19.42
2022-10-08T10:38:23.931Z,19.17
2022-10-08T10:41:18.680Z,14.85
2022-10-08T10:43:54.631Z,13.15
2022-10-08T10:46:31.689Z,20.70
2022-10-08T10:48:59.324Z,12.35
2022-10-08T10:51:53.652Z,17.05
2022-10-08T10:54:56.510Z,10.90
2022-10-08T10:57:53.172Z,17.27
2022-10-08T11:00:25.650Z,11.02
2022-10-08T11:03:09.648Z,11.35
2022-10-08T11:05:37.110Z,19.95
2022-10-08T11:08:15.366Z,16.27
2022-10-08T11:11:08.464Z,22.60
2022-10-08T11:13:56.517Z,14.35
2022-10-08T11:16:51.715Z,19.80
2022-10-08T11:19:39.900Z,17.75
2022-10-08T11:22:37.873Z,22.95
2022-10-08T11:25:18.194Z,20.98
2022-10-08T11:28:04.517Z,18.63
2022-10-08T11:30:49.690Z,24.35
2022-10-08T11:33:17.419Z,14.68
2022-10-08T11:35:54.718Z,15.82
2022-10-08T11:38:37.076Z,29.85
2022-10-08T11:41:16.427Z,24.73
2022-10-08T11:43:45.490Z,21.50
2022-10-08T11:46:32.787Z,21.55
2022-10-08T11:49:11.626Z,17.33
2022-10-08T11:51:40.436Z,25.67
2022-10-08T11:54:29.056Z,21.83
2022-10-08T11:57:18.586Z,21.42
2022-10-08T12:00:08.530Z,18.23
2022-10-08T12:02:43.009Z,15.43
2022-10-08T12:05:23.509Z,13.13
2022-10-08T12:07:55.554Z,16.07
2022-10-08T12:10:33.488Z,21.40
2022-10-08T12:13:03.833Z,14.32
2022-10-08T12:15:33.325Z,12.88
2022-10-08T12:18:04.649Z,14.25
2022-10-08T12:20:33.580Z,15.10
2022-10-08T12:23:08.703Z,10.32
2022-10-08T12:25:48.913Z,11.95
2022-10-08T12:28:21.282Z,17.50
2022-10-08T12:30:52.437Z,13.50
2022-10-08T12:33:19.529Z,14.75
2022-10-08T12:36:09.832Z,14.32
2022-10-08T12:38:41.586Z,19.57
2022-10-08T12:41:20.944Z,12.55
2022-10-08T12:43:57.327Z,9.13
2022-10-08T12:46:40.883Z,11.77
2022-10-08T12:49:22.079Z,15.27
2022-10-08T12:52:03.894Z,11.95
2022-10-08T12:54:31.151Z,7.00
2022-10-08T12:56:59.385Z,13.25
2022-10-08T12:59:31.942Z,15.23
2022-10-08T13:01:59.103Z,8.15
2022-10-08T13:04:33.883Z,10.82
2022-10-08T13:07:00.405Z,9.27
2022-10-08T13:09:35.038Z,8.68
2022-10-08T13:12:04.111Z,9.05
2022-10-08T13:14:41.165Z,7.60
2022-10-08T13:17:27.485Z,7.38
2022-10-08T13:20:15.561Z,13.80
2022-10-08T13:22:42.007Z,8.00
2022-10-08T13:25:35.000Z,9.57
2022-10-08T13:28:55.816Z,7.97
2022-10-08T13:31:23.897Z,10.30
2022-10-08T13:33:50.765Z,8.77
2022-10-08T13:36:23.084Z,9.63
2022-10-08T13:38:49.542Z,10.95
2022-10-08T13:41:23.636Z,12.02
2022-10-08T13:43:50.261Z,5.88
2022-10-08T13:46:16.737Z,9.63
2022-10-08T13:48:43.935Z,9.55
2022-10-08T13:51:11.201Z,8.38
2022-10-08T13:53:37.795Z,7.80
2022-10-08T13:56:05.466Z,9.07
2022-10-08T13:58:32.699Z,10.43
2022-10-08T14:00:59.156Z,10.25
2022-10-08T14:03:25.621Z,6.63
2022-10-08T14:05:52.249Z,10.15
2022-10-08T14:08:23.839Z,11.18
2022-10-08T14:10:57.291Z,6.78
2022-10-08T14:13:24.565Z,9.25
2022-10-08T14:15:50.952Z,9.00
2022-10-08T14:18:17.362Z,7.40
2022-10-08T14:20:43.872Z,11.77
2022-10-08T14:23:13.142Z,11.13
2022-10-08T14:25:39.541Z,9.77
2022-10-08T14:28:05.962Z,11.63
2022-10-08T14:30:32.420Z,9.15
2022-10-08T14:32:58.849Z,7.05
2022-10-08T14:35:25.312Z,3.92
2022-10-08T14:37:51.681Z,4.00
2022-10-08T14:40:22.644Z,7.18
2022-10-08T14:45:17.047Z,5.28
2022-10-08T14:47:43.439Z,8.60
2022-10-08T14:50:10.116Z,9.10
2022-10-08T14:52:40.513Z,6.05
2022-10-08T14:55:09.830Z,6.18
2022-10-08T14:57:36.202Z,5.68
2022-10-08T15:00:03.292Z,7.40
2022-10-08T15:02:29.667Z,6.95
2022-10-08T15:04:56.098Z,6.18
2022-10-08T15:07:22.500Z,6.55
2022-10-08T15:09:48.927Z,3.35
2022-10-08T15:12:15.302Z,4.68
2022-10-08T15:14:41.704Z,7.88
2022-10-08T15:17:08.166Z,6.30
2022-10-08T15:19:34.552Z,5.57
2022-10-08T15:22:00.926Z,6.60
2022-10-08T15:24:27.370Z,2.15
2022-10-08T15:26:54.345Z,3.72
2022-10-08T15:29:20.774Z,5.65
2022-10-08T15:31:49.802Z,7.03
2022-10-08T15:34:17.733Z,6.90
2022-10-08T15:36:44.950Z,3.40
2022-10-08T15:39:18.864Z,6.55
2022-10-08T15:41:49.610Z,5.57
2022-10-08T15:44:21.802Z,4.80
2022-10-08T15:46:50.682Z,2.83
2022-10-08T15:49:17.067Z,8.35
2022-10-08T15:51:43.543Z,6.32
2022-10-08T15:54:09.934Z,3.50
2022-10-08T15:56:36.464Z,3.40
2022-10-08T15:59:04.209Z,6.93
2022-10-08T16:01:31.121Z,5.57
2022-10-08T16:03:58.517Z,8.80
2022-10-08T16:06:27.958Z,3.00
2022-10-08T16:08:56.884Z,2.88
2022-10-08T16:11:36.392Z,4.47
2022-10-08T16:14:10.513Z,4.13
2022-10-08T16:16:38.286Z,5.60
2022-10-08T16:19:07.622Z,2.65
2022-10-08T16:21:35.468Z,6.00
2022-10-08T16:24:01.965Z,6.60
2022-10-08T16:26:31.698Z,3.17
2022-10-08T16:29:01.012Z,2.67
2022-10-08T16:31:30.165Z,6.00
2022-10-08T16:33:58.944Z,5.47
2022-10-08T16:36:26.895Z,6.35
2022-10-08T16:38:53.573Z,4.53
2022-10-08T16:41:28.591Z,7.28
2022-10-08T16:43:57.431Z,11.20
2022-10-08T16:46:31.921Z,6.15
2022-10-08T16:49:01.641Z,4.63
2022-10-08T16:51:31.207Z,5.97
2022-10-08T16:53:59.870Z,5.55
2022-10-08T16:56:30.301Z,5.05
2022-10-08T16:59:00.158Z,4.65
2022-10-08T17:01:27.449Z,6.97
2022-10-08T17:03:54.294Z,9.40
2022-10-08T17:06:22.033Z,5.53
2022-10-08T17:08:49.426Z,6.85
2022-10-08T17:11:15.802Z,3.28
2022-10-08T17:13:47.316Z,7.00
2022-10-08T17:16:15.311Z,5.03
2022-10-08T17:18:44.156Z,6.68
2022-10-08T17:21:11.782Z,8.60
2022-10-08T17:23:38.222Z,6.25
2022-10-08T17:26:10.325Z,6.35
2022-10-08T17:28:39.416Z,3.72
2022-10-08T17:31:07.575Z,8.93
2022-10-08T17:33:35.994Z,9.57
2022-10-08T17:36:07.618Z,6.75
2022-10-08T17:38:34.782Z,11.63
2022-10-08T17:41:01.647Z,6.35
2022-10-08T17:43:28.136Z,5.18
2022-10-08T17:45:54.580Z,9.77
2022-10-08T17:48:20.998Z,7.55
2022-10-08T17:50:47.396Z,8.13
2022-10-08T17:53:13.795Z,5.22
2022-10-08T17:55:40.183Z,5.28
2022-10-08T17:58:06.573Z,11.23
2022-10-08T18:00:32.975Z,7.25
2022-10-08T18:02:59.404Z,13.93
2022-10-08T18:05:25.880Z,8.27
2022-10-08T18:07:52.318Z,6.45
2022-10-08T18:10:18.710Z,5.45
2022-10-08T18:12:45.387Z,7.88
2022-10-08T18:15:12.011Z,8.88
2022-10-08T18:17:38.501Z,4.60
2022-10-08T18:20:05.228Z,10.27
2022-10-08T18:22:31.636Z,11.65
2022-10-08T18:24:58.022Z,14.15
2022-10-08T18:27:24.400Z,5.45
2022-10-08T18:29:50.793Z,10.70
2022-10-08T18:32:17.166Z,6.15
2022-10-08T18:34:43.589Z,7.32
2022-10-08T18:37:09.963Z,7.10
2022-10-08T18:39:36.409Z,6.88
2022-10-08T18:42:02.788Z,7.35
2022-10-08T18:44:30.417Z,5.60
2022-10-08T18:47:00.593Z,9.10
2022-10-08T18:49:30.739Z,10.75
2022-10-08T18:51:57.464Z,14.30
2022-10-08T18:54:23.844Z,5.35
2022-10-08T18:56:50.240Z,7.68
2022-10-08T18:59:17.339Z,4.53
2022-10-08T19:01:47.125Z,6.47
2022-10-08T19:04:16.994Z,7.68
2022-10-08T19:06:44.741Z,8.70
2022-10-08T19:09:11.263Z,8.60
2022-10-08T19:11:48.720Z,14.48
2022-10-08T19:14:17.692Z,8.90
2022-10-08T19:16:44.721Z,10.45
2022-10-08T19:19:23.208Z,8.52
2022-10-08T19:21:50.562Z,11.13
2022-10-08T19:24:19.889Z,6.25
2022-10-08T19:26:47.367Z,5.95
2022-10-08T19:29:16.727Z,6.28
2022-10-08T19:31:47.314Z,10.50
2022-10-08T19:34:14.654Z,6.32
2022-10-08T19:36:41.035Z,7.00
2022-10-08T19:39:11.735Z,6.50
2022-10-08T19:41:39.252Z,9.80
2022-10-08T19:44:05.708Z,8.32
2022-10-08T19:46:32.676Z,5.13
2022-10-08T19:49:01.515Z,6.32
2022-10-08T19:51:29.607Z,8.77
2022-10-08T19:53:57.495Z,5.35
2022-10-08T19:56:23.894Z,7.60
2022-10-08T19:58:53.435Z,6.97
2022-10-08T20:01:23.330Z,7.50
2022-10-08T20:03:52.991Z,10.80
2022-10-08T20:06:24.223Z,8.02
2022-10-08T20:08:54.305Z,6.80
2022-10-08T20:11:21.298Z,12.00
2022-10-08T20:13:48.791Z,8.27
2022-10-08T20:16:20.964Z,13.43
2022-10-08T20:18:49.469Z,10.18
2022-10-08T20:21:15.859Z,6.00
2022-10-08T20:23:42.257Z,8.38
2022-10-08T20:26:09.156Z,6.38
2022-10-08T20:28:36.145Z,8.07
2022-10-08T20:31:10.302Z,10.25
2022-10-08T20:33:36.822Z,7.78
2022-10-08T20:36:03.262Z,12.13
2022-10-08T20:38:30.277Z,15.07
2022-10-08T20:40:56.678Z,7.82
2022-10-08T20:43:28.252Z,7.15
2022-10-08T20:45:55.023Z,9.38
2022-10-08T20:48:21.441Z,10.00
2022-10-08T20:50:47.830Z,5.93
2022-10-08T20:53:14.226Z,7.25
2022-10-08T20:55:40.610Z,8.77
2022-10-08T20:58:07.012Z,13.32
2022-10-08T21:00:33.898Z,10.75
2022-10-08T21:03:00.378Z,11.73
2022-10-08T21:05:26.772Z,10.35
2022-10-08T21:07:53.156Z,10.68
2022-10-08T21:10:24.493Z,8.65
2022-10-08T21:12:51.644Z,7.57
2022-10-08T21:15:18.023Z,5.30
2022-10-08T21:17:44.403Z,5.20
2022-10-08T21:20:10.775Z,10.23
2022-10-08T21:22:37.139Z,11.40
2022-10-08T21:25:03.598Z,13.95
2022-10-08T21:27:29.970Z,8.27
2022-10-08T21:29:56.391Z,5.38
2022-10-08T21:32:22.787Z,11.80
2022-10-08T21:34:49.190Z,11.30
2022-10-08T21:37:15.563Z,7.15
2022-10-08T21:39:42.015Z,7.43
2022-10-08T21:42:08.391Z,7.97
2022-10-08T21:44:34.784Z,10.48
2022-10-08T21:47:01.194Z,8.45
2022-10-08T21:49:27.635Z,4.97
2022-10-08T21:51:54.030Z,8.05
2022-10-08T21:54:20.410Z,12.10
2022-10-08T21:56:46.798Z,7.15
2022-10-08T21:59:15.334Z,8.25
2022-10-08T22:01:44.649Z,10.68
2022-10-08T22:04:14.315Z,16.05
2022-10-08T22:06:43.462Z,7.43
2022-10-08T22:09:12.610Z,9.32
2022-10-08T22:11:39.475Z,14.43
2022-10-08T22:14:06.580Z,9.88
2022-10-08T22:16:33.369Z,11.65
2022-10-08T22:19:00.046Z,8.52
2022-10-08T22:21:26.879Z,11.85
2022-10-08T22:23:53.465Z,16.92
2022-10-08T22:26:27.095Z,12.65
2022-10-08T22:28:53.622Z,12.82
2022-10-08T22:31:20.198Z,16.23
2022-10-08T22:33:48.037Z,15.68
2022-10-08T22:36:20.618Z,12.48
2022-10-08T22:38:47.655Z,11.82
2022-10-08T22:41:15.806Z,14.57
2022-10-08T22:43:43.057Z,15.18
2022-10-08T22:46:18.201Z,9.88
2022-10-08T22:48:45.094Z,10.45
2022-10-08T22:51:14.974Z,13.77
2022-10-08T22:53:41.491Z,7.00
2022-10-08T22:56:12.449Z,20.95
2022-10-08T22:58:38.843Z,9.82
2022-10-08T23:01:08.193Z,14.13
2022-10-08T23:03:35.497Z,8.38
2022-10-08T23:06:13.552Z,10.75
2022-10-08T23:08:40.234Z,11.90
2022-10-08T23:11:06.940Z,10.15
2022-10-08T23:13:33.795Z,7.43
2022-10-08T23:16:05.784Z,15.30
2022-10-08T23:18:33.915Z,10.77
2022-10-08T23:21:03.484Z,9.00
2022-10-08T23:23:30.543Z,8.50
2022-10-08T23:25:59.295Z,7.22
2022-10-08T23:28:26.273Z,12.20
2022-10-08T23:30:53.099Z,8.85
2022-10-08T23:33:20.527Z,9.20
2022-10-08T23:35:54.544Z,8.45
2022-10-08T23:38:22.430Z,14.52
2022-10-08T23:40:49.726Z,7.75
2022-10-08T23:43:16.529Z,9.27
2022-10-08T23:45:43.079Z,7.22
2022-10-08T23:48:09.594Z,15.10
2022-10-08T23:50:37.458Z,9.25
2022-10-08T23:53:04.130Z,7.68
2022-10-08T23:55:30.520Z,8.25
2022-10-08T23:57:56.910Z,9.95
